Time;durP1;ratioP1;P1;durP2;ratioP2;P2;SDS_P1;SDS_P2;PMS_P1;PMS_P2;Temp;Humidity;BMP_temperature;BMP_pressure;BME280_temperature;BME280_humidity;BME280_pressure;Samples;Min_cycle;Max_cycle;Signal;HPM_P1;HPM_P2
2020/12/11 00:02:04;;;;;;;179.73;112.83;;;;;;;-1.51;86.08;98218.58;124810;1099;65246;-77
2020/12/11 00:04:31;;;;;;;174.42;107.35;;;;;;;-1.64;85.85;98221.55;125128;1098;65268;-77
2020/12/11 00:06:59;;;;;;;155.20;100.93;;;;;;;-1.75;85.55;98221.02;125217;1098;65121;-77
2020/12/11 00:09:27;;;;;;;170.27;105.37;;;;;;;-1.85;85.98;98215.21;125230;1098;65127;-77
2020/12/11 00:11:54;;;;;;;187.20;112.40;;;;;;;-1.84;86.98;98213.48;125223;1098;65153;-78
2020/12/11 00:14:21;;;;;;;181.80;113.03;;;;;;;-1.83;86.72;98218.64;125237;1098;65149;-77
2020/12/11 00:16:47;;;;;;;187.47;112.70;;;;;;;-1.88;86.77;98214.45;125186;1098;65171;-77
2020/12/11 00:19:13;;;;;;;192.60;110.15;;;;;;;-1.88;87.22;98219.67;125184;1098;65233;-78
2020/12/11 00:21:41;;;;;;;169.47;102.97;;;;;;;-1.87;86.82;98218.77;125162;1098;65158;-78
2020/12/11 00:24:10;;;;;;;167.93;105.23;;;;;;;-1.83;87.33;98218.64;125221;1099;65265;-78
2020/12/11 00:26:36;;;;;;;166.43;104.73;;;;;;;-1.80;86.41;98208.09;125206;1098;65136;-78
2020/12/11 00:29:04;;;;;;;175.80;108.83;;;;;;;-1.77;86.99;98220.20;125088;1098;65178;-78
2020/12/11 00:31:31;;;;;;;163.00;99.55;;;;;;;-1.77;86.37;98221.05;125236;1098;65200;-78
2020/12/11 00:33:57;;;;;;;157.03;100.50;;;;;;;-1.77;86.22;98220.20;124870;1099;65220;-78
2020/12/11 00:36:24;;;;;;;166.50;104.70;;;;;;;-1.69;86.01;98222.59;124754;1100;65354;-80
2020/12/11 00:38:52;;;;;;;188.70;118.07;;;;;;;-1.64;87.13;98233.77;125123;1098;65227;-78
2020/12/11 00:41:19;;;;;;;195.97;121.97;;;;;;;-1.60;86.95;98236.24;124795;1099;65265;-78
2020/12/11 00:43:45;;;;;;;196.53;121.57;;;;;;;-1.56;86.94;98231.77;125201;1098;65268;-78
2020/12/11 00:46:13;;;;;;;185.97;116.87;;;;;;;-1.51;87.04;98235.09;125176;1098;65170;-78
2020/12/11 00:48:40;;;;;;;189.07;115.23;;;;;;;-1.44;87.34;98235.78;125218;1099;65230;-78
2020/12/11 00:51:07;;;;;;;185.77;115.77;;;;;;;-1.35;86.80;98238.09;125239;1098;65159;-78
2020/12/11 00:53:33;;;;;;;186.73;116.87;;;;;;;-1.31;86.94;98231.88;124797;1098;65230;-78
2020/12/11 00:55:59;;;;;;;179.83;111.63;;;;;;;-1.28;86.68;98237.01;125181;1098;65220;-78
2020/12/11 00:58:26;;;;;;;176.18;108.63;;;;;;;-1.21;87.14;98235.92;125161;1098;65223;-78
2020/12/11 01:00:52;;;;;;;162.13;106.50;;;;;;;-1.18;86.71;98238.44;125195;1099;65150;-78
2020/12/11 01:03:19;;;;;;;175.87;111.27;;;;;;;-1.14;86.65;98241.79;125148;1098;65200;-78
2020/12/11 01:05:45;;;;;;;168.10;107.27;;;;;;;-1.09;86.41;98233.81;125140;1098;65130;-78
2020/12/11 01:08:11;;;;;;;170.37;106.83;;;;;;;-1.10;86.82;98219.89;124894;1100;65140;-78
2020/12/11 01:10:38;;;;;;;161.87;101.67;;;;;;;-1.07;86.33;98224.16;125137;1098;65217;-78
2020/12/11 01:13:04;;;;;;;164.57;100.60;;;;;;;-0.99;86.69;98229.99;125150;1098;65294;-78
2020/12/11 01:15:30;;;;;;;176.33;109.67;;;;;;;-0.93;86.61;98221.94;125182;1098;65197;-78
2020/12/11 01:17:57;;;;;;;168.35;106.35;;;;;;;-0.89;86.79;98220.94;125220;1098;65140;-78
2020/12/11 01:20:23;;;;;;;166.88;104.38;;;;;;;-0.89;86.36;98218.33;125156;1098;65133;-78
2020/12/11 01:22:50;;;;;;;160.67;102.10;;;;;;;-0.90;86.86;98212.22;125151;1098;65195;-78
2020/12/11 01:25:18;;;;;;;161.57;103.67;;;;;;;-0.89;87.08;98216.56;125236;1098;65255;-78
2020/12/11 01:27:44;;;;;;;178.70;111.07;;;;;;;-0.90;86.31;98211.37;125276;1098;65152;-79
2020/12/11 01:30:11;;;;;;;156.80;102.03;;;;;;;-0.94;86.43;98208.01;125133;1098;65205;-78
2020/12/11 01:32:37;;;;;;;155.70;100.03;;;;;;;-0.94;87.02;98215.01;124819;1098;65166;-78
2020/12/11 01:35:04;;;;;;;162.30;101.10;;;;;;;-0.94;87.03;98213.24;125210;1098;65142;-78
2020/12/11 01:37:32;;;;;;;166.18;104.25;;;;;;;-0.92;87.21;98208.82;125236;1098;65220;-78
2020/12/11 01:39:58;;;;;;;166.55;107.00;;;;;;;-0.93;86.80;98209.70;125148;1100;65235;-77
2020/12/11 01:42:25;;;;;;;159.57;105.57;;;;;;;-0.94;86.59;98212.39;125237;1098;65233;-77
2020/12/11 01:44:53;;;;;;;162.97;102.20;;;;;;;-0.97;86.95;98208.12;125166;1098;65115;-77
2020/12/11 01:47:23;;;;;;;156.60;102.97;;;;;;;-0.96;86.84;98203.73;125267;1098;65266;-77
2020/12/11 01:49:54;;;;;;;161.70;104.23;;;;;;;-0.94;87.28;98204.55;125264;1098;65150;-77
2020/12/11 01:52:20;;;;;;;171.67;109.17;;;;;;;-0.92;87.43;98210.59;125226;1098;65170;-77
2020/12/11 01:54:48;;;;;;;165.10;104.73;;;;;;;-0.89;87.33;98203.48;125215;1098;65150;-77
2020/12/11 01:57:34;;;;;;;160.97;100.00;;;;;;;-0.89;87.30;98197.41;125224;1098;65300;-77
2020/12/11 02:00:05;;;;;;;148.10;98.50;;;;;;;-0.87;87.30;98195.56;124902;1098;65165;-78
2020/12/11 02:02:36;;;;;;;144.20;96.30;;;;;;;-0.83;87.13;98205.03;125263;1097;65252;-78
2020/12/11 02:05:10;;;;;;;153.67;99.30;;;;;;;-0.79;87.12;98201.42;125241;1098;65265;-78
2020/12/11 02:07:38;;;;;;;142.90;95.60;;;;;;;-0.78;87.19;98200.50;125253;1098;65159;-78
2020/12/11 02:10:09;;;;;;;143.53;91.40;;;;;;;-0.79;87.34;98190.08;125223;1098;65179;-77
2020/12/11 02:12:37;;;;;;;137.93;85.83;;;;;;;-0.77;87.09;98194.35;125259;1099;65160;-77
2020/12/11 02:15:06;;;;;;;138.30;90.30;;;;;;;-0.71;87.41;98190.66;125191;1098;65597;-77
2020/12/11 02:17:32;;;;;;;148.63;96.87;;;;;;;-0.68;87.21;98180.97;124844;1100;65230;-77
2020/12/11 02:19:59;;;;;;;141.77;93.50;;;;;;;-0.67;86.88;98187.90;125105;1098;65196;-78
2020/12/11 02:22:25;;;;;;;139.67;90.47;;;;;;;-0.68;87.25;98177.51;125137;1098;65241;-79
2020/12/11 02:24:52;;;;;;;131.60;88.97;;;;;;;-0.69;86.97;98179.23;125188;1098;65128;-78
2020/12/11 02:27:19;;;;;;;130.77;85.47;;;;;;;-0.65;86.52;98180.02;125109;1098;65316;-79
2020/12/11 02:29:45;;;;;;;138.67;92.10;;;;;;;-0.63;87.02;98172.09;125183;1099;65156;-79
2020/12/11 02:32:14;;;;;;;138.60;89.20;;;;;;;-0.60;86.92;98175.47;125216;1098;65169;-78
2020/12/11 02:34:42;;;;;;;144.40;92.40;;;;;;;-0.57;86.74;98179.74;125269;1098;65121;-78
2020/12/11 02:37:11;;;;;;;133.20;87.03;;;;;;;-0.56;86.50;98179.67;125122;1098;65139;-78
2020/12/11 02:39:38;;;;;;;126.40;83.27;;;;;;;-0.58;86.80;98176.28;125254;1098;65131;-78
2020/12/11 02:42:06;;;;;;;131.67;88.03;;;;;;;-0.59;86.55;98169.31;125139;1098;65181;-79
2020/12/11 02:44:33;;;;;;;145.33;94.20;;;;;;;-0.61;86.54;98173.74;125141;1099;65150;-78
2020/12/11 02:47:00;;;;;;;131.65;86.50;;;;;;;-0.63;86.34;98178.20;125250;1098;65707;-78
2020/12/11 02:49:26;;;;;;;123.07;80.57;;;;;;;-0.65;86.44;98182.62;124776;1098;65186;-78
2020/12/11 02:51:53;;;;;;;121.97;76.33;;;;;;;-0.73;86.22;98180.27;125117;1098;65317;-78
2020/12/11 02:54:20;;;;;;;126.93;83.17;;;;;;;-0.79;86.13;98179.61;125220;1098;65165;-78
2020/12/11 02:56:46;;;;;;;138.17;89.50;;;;;;;-0.81;86.85;98173.61;125160;1098;65197;-78
2020/12/11 02:59:12;;;;;;;137.47;87.97;;;;;;;-0.82;87.06;98187.57;125218;1098;65085;-78
2020/12/11 03:01:39;;;;;;;121.63;81.00;;;;;;;-0.83;86.93;98185.88;125219;1098;65153;-78
2020/12/11 03:04:05;;;;;;;125.20;81.33;;;;;;;-0.82;87.24;98175.34;125149;1098;65223;-78
2020/12/11 03:06:32;;;;;;;133.93;87.43;;;;;;;-0.75;87.42;98181.23;125173;1098;65111;-78
2020/12/11 03:08:59;;;;;;;145.35;97.60;;;;;;;-0.76;87.16;98180.39;125166;1098;65224;-78
2020/12/11 03:11:26;;;;;;;138.43;90.47;;;;;;;-0.83;86.97;98181.49;125172;1098;65223;-78
2020/12/11 03:13:54;;;;;;;129.83;83.73;;;;;;;-0.86;86.69;98180.75;125174;1098;65165;-78
2020/12/11 03:16:21;;;;;;;128.15;83.30;;;;;;;-0.85;87.38;98172.83;125222;1098;65220;-78
2020/12/11 03:18:48;;;;;;;128.37;82.17;;;;;;;-0.84;87.08;98171.95;125132;1098;65124;-78
2020/12/11 03:21:15;;;;;;;138.73;91.27;;;;;;;-0.83;87.36;98171.03;124831;1098;65084;-78
2020/12/11 03:23:42;;;;;;;139.47;89.40;;;;;;;-0.82;86.94;98167.49;125159;1098;65143;-78
2020/12/11 03:26:09;;;;;;;125.60;82.07;;;;;;;-0.84;87.23;98179.80;125172;1098;65232;-78
2020/12/11 03:28:36;;;;;;;123.45;79.55;;;;;;;-0.89;86.70;98161.63;125224;1098;65146;-78
2020/12/11 03:31:04;;;;;;;126.73;82.77;;;;;;;-0.90;87.24;98179.98;125152;1098;65143;-78
2020/12/11 03:33:30;;;;;;;139.05;88.10;;;;;;;-0.94;86.72;98179.24;125143;1098;65178;-78
2020/12/11 03:35:57;;;;;;;129.55;83.30;;;;;;;-0.93;87.38;98182.70;125219;1099;65151;-78
2020/12/11 03:38:23;;;;;;;128.57;81.73;;;;;;;-0.89;86.95;98189.56;125254;1098;65542;-78
2020/12/11 03:40:50;;;;;;;124.78;80.57;;;;;;;-0.83;87.29;98193.72;125192;1098;65294;-78
2020/12/11 03:43:17;;;;;;;129.57;78.23;;;;;;;-0.79;87.57;98190.08;125209;1098;65223;-78
2020/12/11 03:45:43;;;;;;;130.45;82.80;;;;;;;-0.73;87.24;98197.73;125231;1098;65159;-78
2020/12/11 03:48:09;;;;;;;136.23;82.87;;;;;;;-0.71;86.87;98188.05;125170;1098;65160;-79
2020/12/11 03:50:36;;;;;;;124.20;79.15;;;;;;;-0.70;87.46;98201.09;125199;1098;65185;-78
2020/12/11 03:53:03;;;;;;;120.53;75.00;;;;;;;-0.64;87.45;98200.02;124766;1098;65163;-78
2020/12/11 03:55:31;;;;;;;119.70;74.20;;;;;;;-0.56;87.30;98202.37;125179;1098;65194;-78
2020/12/11 03:57:57;;;;;;;130.75;80.85;;;;;;;-0.52;87.09;98196.14;125181;1098;65155;-77
2020/12/11 04:00:24;;;;;;;135.65;84.20;;;;;;;-0.47;87.24;98197.69;125150;1098;65640;-80
2020/12/11 04:02:50;;;;;;;138.43;81.63;;;;;;;-0.47;86.58;98205.53;125277;1098;65165;-78
2020/12/11 04:05:17;;;;;;;138.55;91.55;;;;;;;-0.45;87.25;98198.49;125271;1098;65607;-78
2020/12/11 04:07:44;;;;;;;132.80;87.03;;;;;;;-0.42;87.23;98207.12;124853;1098;65181;-78
2020/12/11 04:10:10;;;;;;;130.97;87.78;;;;;;;-0.42;87.29;98197.53;125176;1098;65271;-77
2020/12/11 04:12:36;;;;;;;140.80;93.50;;;;;;;-0.37;87.30;98195.61;125108;1098;65267;-80
2020/12/11 04:15:03;;;;;;;168.23;111.80;;;;;;;-0.36;87.23;98197.30;125129;1098;65105;-78
2020/12/11 04:17:29;;;;;;;204.27;122.23;;;;;;;-0.38;86.70;98198.27;125133;1098;65297;-79
2020/12/11 04:19:55;;;;;;;176.30;107.40;;;;;;;-0.41;86.49;98199.22;125237;1098;65152;-78
2020/12/11 04:22:24;;;;;;;157.17;94.47;;;;;;;-0.42;86.39;98199.27;124797;1098;65204;-78
2020/12/11 04:24:51;;;;;;;172.60;99.10;;;;;;;-0.48;86.29;98195.11;125290;1098;65133;-79
2020/12/11 04:27:17;;;;;;;257.80;132.43;;;;;;;-0.53;86.91;98187.41;124786;1099;65255;-78
2020/12/11 04:29:43;;;;;;;225.83;126.60;;;;;;;-0.58;87.07;98185.87;125149;1099;65223;-78
2020/12/11 04:32:10;;;;;;;200.70;113.47;;;;;;;-0.65;86.48;98184.39;125248;1098;65182;-79
2020/12/11 04:34:36;;;;;;;172.35;106.45;;;;;;;-0.72;86.75;98191.59;124879;1098;65130;-78
2020/12/11 04:37:03;;;;;;;212.85;136.05;;;;;;;-0.82;86.75;98177.95;124837;1098;65275;-78
2020/12/11 04:39:29;;;;;;;177.60;118.20;;;;;;;-0.90;86.74;98183.45;125220;1098;65120;-79
2020/12/11 04:41:57;;;;;;;159.93;103.40;;;;;;;-0.96;87.11;98193.27;125168;1098;65307;-78
2020/12/11 04:44:25;;;;;;;164.05;114.25;;;;;;;-1.04;86.71;98190.06;124766;1099;65222;-76
2020/12/11 04:46:51;;;;;;;143.27;100.43;;;;;;;-1.12;86.44;98195.55;125126;1098;65124;-76
2020/12/11 04:49:18;;;;;;;131.27;81.80;;;;;;;-1.19;86.80;98199.25;125193;1098;65179;-78
2020/12/11 04:51:50;;;;;;;138.63;89.50;;;;;;;-1.27;87.13;98196.88;125167;1098;65182;-78
2020/12/11 04:54:19;;;;;;;130.17;81.30;;;;;;;-1.35;87.40;98193.66;124848;1098;65224;-78
2020/12/11 04:56:50;;;;;;;120.07;77.97;;;;;;;-1.38;87.41;98192.00;125238;1098;65175;-79
2020/12/11 04:59:18;;;;;;;127.57;80.93;;;;;;;-1.41;86.92;98199.09;125259;1098;65126;-78
2020/12/11 05:01:45;;;;;;;129.47;82.90;;;;;;;-1.46;86.76;98198.38;125176;1098;65163;-78
2020/12/11 05:04:11;;;;;;;127.60;79.60;;;;;;;-1.53;86.97;98196.86;125136;1098;65162;-78
2020/12/11 05:06:37;;;;;;;130.13;81.43;;;;;;;-1.55;87.35;98191.70;125135;1098;65223;-78
2020/12/11 05:09:22;;;;;;;128.80;81.27;;;;;;;-1.50;87.17;98189.80;125199;1098;65216;-78
2020/12/11 05:11:49;;;;;;;131.93;81.03;;;;;;;-1.48;87.47;98187.97;125144;1098;65303;-78
2020/12/11 05:14:24;;;;;;;134.23;84.20;;;;;;;-1.47;86.77;98199.30;125166;1098;65236;-78
2020/12/11 05:17:00;;;;;;;133.87;82.57;;;;;;;-1.46;87.36;98199.23;125165;1099;65127;-76
2020/12/11 05:19:28;;;;;;;120.67;80.17;;;;;;;-1.41;87.42;98196.48;125210;1098;66361;-76
2020/12/11 05:22:11;;;;;;;133.37;80.67;;;;;;;-1.36;87.35;98194.58;124800;1098;65230;-78
2020/12/11 05:24:46;;;;;;;137.43;87.70;;;;;;;-1.36;86.83;98205.88;125184;1098;65214;-79
2020/12/11 05:27:32;;;;;;;145.97;92.77;;;;;;;-1.34;87.46;98208.46;124789;1100;65150;-79
2020/12/11 05:30:00;;;;;;;137.80;86.00;;;;;;;-1.32;87.13;98198.78;125229;1098;65243;-77
2020/12/11 05:32:47;;;;;;;133.80;83.73;;;;;;;-1.33;87.51;98205.78;125157;1098;65159;-77
2020/12/11 05:35:19;;;;;;;136.07;87.20;;;;;;;-1.30;87.59;98211.82;125215;1098;65188;-77
2020/12/11 05:37:48;;;;;;;140.57;83.03;;;;;;;-1.29;86.95;98205.67;125238;1098;65145;-77
2020/12/11 05:40:28;;;;;;;130.22;82.40;;;;;;;-1.31;87.56;98218.81;125178;1098;65223;-77
2020/12/11 05:43:13;;;;;;;130.83;83.03;;;;;;;-1.32;86.91;98214.47;125224;1098;65246;-77
2020/12/11 05:45:54;;;;;;;138.47;86.07;;;;;;;-1.37;87.09;98208.53;125169;1098;65121;-77
2020/12/11 05:48:23;;;;;;;138.60;87.35;;;;;;;-1.44;86.61;98200.05;125222;1098;65120;-78
2020/12/11 05:50:49;;;;;;;128.27;80.90;;;;;;;-1.50;86.71;98201.98;125203;1098;65201;-78
2020/12/11 05:53:16;;;;;;;137.33;80.97;;;;;;;-1.57;87.35;98211.78;125196;1098;65123;-78
2020/12/11 05:55:42;;;;;;;135.13;85.23;;;;;;;-1.61;87.35;98217.98;125244;1098;65162;-78
2020/12/11 05:58:11;;;;;;;132.83;83.87;;;;;;;-1.67;86.55;98216.42;125268;1098;65237;-78
2020/12/11 06:00:41;;;;;;;134.53;81.97;;;;;;;-1.69;87.08;98222.59;125268;1098;65233;-78
2020/12/11 06:03:08;;;;;;;139.03;84.17;;;;;;;-1.75;87.58;98222.78;125308;1098;65153;-78
2020/12/11 06:05:39;;;;;;;135.57;85.40;;;;;;;-1.82;87.29;98222.98;125294;1100;65256;-78
2020/12/11 06:08:12;;;;;;;144.10;87.07;;;;;;;-1.89;87.42;98213.61;124826;1098;65250;-78
2020/12/11 06:10:40;;;;;;;133.75;82.80;;;;;;;-1.96;87.30;98209.45;125204;1098;65207;-78
2020/12/11 06:13:07;;;;;;;143.50;89.15;;;;;;;-1.99;86.94;98219.99;125156;1098;65166;-78
2020/12/11 06:15:48;;;;;;;144.83;88.10;;;;;;;-2.02;87.45;98222.70;125168;1098;65233;-78
2020/12/11 06:18:21;;;;;;;150.90;88.47;;;;;;;-2.06;87.02;98224.52;125195;1098;65140;-78
2020/12/11 06:20:48;;;;;;;125.53;82.47;;;;;;;-2.09;87.78;98216.78;125168;1098;65147;-78
2020/12/11 06:23:26;;;;;;;130.23;80.97;;;;;;;-2.10;87.51;98215.08;125277;1098;65152;-78
2020/12/11 06:25:57;;;;;;;127.93;77.30;;;;;;;-2.14;87.95;98202.16;125214;1098;65150;-78
2020/12/11 06:28:40;;;;;;;135.33;79.43;;;;;;;-2.17;87.82;98202.25;125178;1098;65146;-77
2020/12/11 06:31:14;;;;;;;121.37;74.00;;;;;;;-2.19;87.28;98204.04;125167;1098;65201;-78
2020/12/11 06:33:47;;;;;;;120.13;74.33;;;;;;;-2.21;88.04;98207.56;124899;1099;65134;-77
2020/12/11 06:36:14;;;;;;;124.45;72.75;;;;;;;-2.23;87.45;98201.52;125271;1099;65144;-78
2020/12/11 06:38:46;;;;;;;127.17;75.23;;;;;;;-2.26;87.41;98201.61;125272;1099;65140;-78
2020/12/11 06:41:34;;;;;;;116.43;71.53;;;;;;;-2.27;87.65;98207.71;125307;1098;65123;-78
2020/12/11 06:44:10;;;;;;;119.67;72.20;;;;;;;-2.29;88.15;98208.66;125264;1098;65141;-78
2020/12/11 06:46:36;;;;;;;116.37;67.80;;;;;;;-2.31;87.36;98213.08;125230;1098;65189;-78
2020/12/11 06:49:22;;;;;;;107.90;64.20;;;;;;;-2.31;87.51;98221.77;125149;1098;65287;-78
2020/12/11 06:51:48;;;;;;;119.67;67.23;;;;;;;-2.25;88.03;98228.56;125166;1098;65240;-78
2020/12/11 06:54:21;;;;;;;103.10;63.75;;;;;;;-2.22;87.43;98231.93;125266;1098;65147;-77
2020/12/11 06:56:49;;;;;;;105.97;62.83;;;;;;;-2.18;87.77;98244.92;125235;1098;65514;-78
2020/12/11 06:59:33;;;;;;;104.65;62.65;;;;;;;-2.14;87.19;98236.09;125299;1098;65169;-78
2020/12/11 07:02:03;;;;;;;99.70;60.57;;;;;;;-2.11;87.66;98228.16;125193;1098;65329;-78
2020/12/11 07:04:41;;;;;;;105.97;63.30;;;;;;;-2.11;87.68;98229.02;125242;1099;65153;-78
2020/12/11 07:07:09;;;;;;;104.80;62.40;;;;;;;-2.06;87.74;98227.13;125151;1098;65271;-77
2020/12/11 07:09:43;;;;;;;119.37;71.20;;;;;;;-1.99;87.89;98230.44;125214;1098;65153;-78
2020/12/11 07:12:10;;;;;;;114.57;70.40;;;;;;;-1.90;87.48;98234.53;125217;1099;65149;-78
2020/12/11 07:14:36;;;;;;;109.27;66.57;;;;;;;-1.87;87.67;98237.92;125194;1098;65248;-78
2020/12/11 07:17:03;;;;;;;117.00;68.57;;;;;;;-1.84;87.46;98240.45;124781;1100;65150;-78
2020/12/11 07:19:47;;;;;;;101.33;63.47;;;;;;;-1.84;86.91;98245.66;125202;1098;65226;-78
2020/12/11 07:22:15;;;;;;;99.77;61.23;;;;;;;-1.84;87.29;98245.66;125242;1098;65149;-78
2020/12/11 07:24:41;;;;;;;104.95;64.50;;;;;;;-1.84;86.63;98239.59;125235;1098;65152;-78
2020/12/11 07:27:08;;;;;;;99.57;61.40;;;;;;;-1.84;86.64;98231.76;124764;1100;65233;-78
2020/12/11 07:29:35;;;;;;;109.23;67.53;;;;;;;-1.84;87.17;98231.76;125184;1098;65217;-78
2020/12/11 07:32:01;;;;;;;110.97;70.53;;;;;;;-1.82;86.67;98222.09;125195;1098;65147;-78
2020/12/11 07:34:29;;;;;;;113.00;68.93;;;;;;;-1.77;86.76;98228.89;125201;1100;65166;-78
2020/12/11 07:36:59;;;;;;;99.27;61.03;;;;;;;-1.77;86.34;98228.05;125199;1098;65124;-78
2020/12/11 07:39:30;;;;;;;104.83;67.00;;;;;;;-1.78;86.71;98221.12;125206;1098;65284;-78
2020/12/11 07:42:03;;;;;;;97.73;58.77;;;;;;;-1.74;86.98;98225.33;124828;1099;65236;-78
2020/12/11 07:44:30;;;;;;;100.65;61.00;;;;;;;-1.71;86.09;98227.88;124795;1100;65154;-78
2020/12/11 07:47:16;;;;;;;98.93;56.80;;;;;;;-1.74;86.50;98217.50;125195;1098;65246;-78
2020/12/11 07:49:45;;;;;;;103.43;59.07;;;;;;;-1.80;86.44;98210.70;125188;1098;65143;-78
2020/12/11 07:52:21;;;;;;;105.60;64.85;;;;;;;-1.84;86.51;98206.49;125275;1098;65171;-77
2020/12/11 07:54:48;;;;;;;107.53;63.83;;;;;;;-1.90;86.66;98204.05;125177;1098;65242;-78
2020/12/11 07:57:16;;;;;;;105.57;62.43;;;;;;;-1.90;86.65;98204.05;124796;1100;65258;-79
2020/12/11 07:59:57;;;;;;;107.40;62.47;;;;;;;-1.89;86.35;98207.53;125155;1099;65134;-77
2020/12/11 08:02:24;;;;;;;97.10;60.40;;;;;;;-1.83;86.69;98204.73;125178;1098;65184;-77
2020/12/11 08:04:51;;;;;;;102.90;57.45;;;;;;;-1.82;86.10;98220.37;125130;1098;65150;-79
2020/12/11 08:07:25;;;;;;;97.80;58.80;;;;;;;-1.77;86.75;98228.05;124790;1099;65185;-79
2020/12/11 08:09:53;;;;;;;100.33;57.50;;;;;;;-1.72;86.29;98225.30;125173;1098;65380;-79
2020/12/11 08:12:21;;;;;;;85.30;53.30;;;;;;;-1.65;86.03;98237.28;125154;1098;65233;-78
2020/12/11 08:14:49;;;;;;;84.87;53.17;;;;;;;-1.59;85.58;98237.09;125311;1098;65134;-79
2020/12/11 08:17:21;;;;;;;85.93;52.27;;;;;;;-1.56;85.67;98236.99;125169;1098;65300;-77
2020/12/11 08:19:57;;;;;;;89.33;52.37;;;;;;;-1.52;85.79;98232.55;125146;1098;65189;-79
2020/12/11 08:22:36;;;;;;;87.03;52.87;;;;;;;-1.46;86.20;98235.81;125303;1098;65217;-76
2020/12/11 08:25:22;;;;;;;82.13;51.37;;;;;;;-1.44;85.59;98238.39;125183;1098;65176;-80
2020/12/11 08:27:52;;;;;;;74.13;47.13;;;;;;;-1.43;85.86;98234.87;125170;1098;65236;-79
2020/12/11 08:30:21;;;;;;;87.90;51.63;;;;;;;-1.41;85.66;98235.69;125167;1098;65265;-78
2020/12/11 08:32:49;;;;;;;79.00;50.10;;;;;;;-1.31;85.53;98231.03;125192;1099;65230;-78
2020/12/11 08:35:20;;;;;;;93.20;56.23;;;;;;;-1.24;84.50;98230.77;125181;1098;65156;-78
2020/12/11 08:37:53;;;;;;;93.40;57.25;;;;;;;-1.17;84.73;98224.44;125139;1098;65143;-78
2020/12/11 08:40:21;;;;;;;98.53;61.00;;;;;;;-0.96;84.49;98229.89;125256;1098;65137;-79
2020/12/11 08:43:03;;;;;;;95.63;55.83;;;;;;;-0.80;85.03;98225.00;125198;1098;65397;-78
2020/12/11 08:45:37;;;;;;;102.23;62.40;;;;;;;-0.70;84.60;98227.26;125224;1098;65150;-78
2020/12/11 08:50:55;;;;;;;94.33;59.00;;;;;;;-0.51;84.51;98224.01;125247;1098;65124;-79
2020/12/11 08:53:26;;;;;;;89.03;57.77;;;;;;;-0.54;84.38;98221.50;125267;1098;65313;-78
2020/12/11 08:55:52;;;;;;;97.73;58.07;;;;;;;-0.45;84.37;98223.78;125214;1098;65217;-78
2020/12/11 08:58:19;;;;;;;90.57;57.03;;;;;;;-0.43;84.29;98224.59;125177;1100;65220;-78
2020/12/11 09:00:45;;;;;;;95.37;60.07;;;;;;;-0.34;84.05;98219.05;124813;1099;65278;-78
2020/12/11 09:03:11;;;;;;;103.92;62.23;;;;;;;-0.21;84.55;98222.09;125085;1098;65150;-78
2020/12/11 09:05:38;;;;;;;91.37;57.83;;;;;;;-0.10;83.74;98219.92;124868;1099;65326;-78
2020/12/11 09:08:04;;;;;;;92.83;60.43;;;;;;;-0.07;83.71;98226.82;125252;1098;65162;-78
2020/12/11 09:10:31;;;;;;;100.30;60.97;;;;;;;-0.02;84.05;98217.87;125178;1098;65226;-78
2020/12/11 09:12:58;;;;;;;89.47;55.43;;;;;;;-0.15;83.69;98210.53;125239;1099;65127;-81
2020/12/11 09:15:24;;;;;;;93.30;58.80;;;;;;;-0.23;83.92;98216.89;125310;1099;65262;-78
2020/12/11 09:17:51;;;;;;;90.50;57.47;;;;;;;-0.20;83.63;98209.84;125304;1098;65142;-78
2020/12/11 09:20:17;;;;;;;93.00;60.50;;;;;;;-0.14;83.74;98206.99;125275;1098;65219;-78
2020/12/11 09:22:44;;;;;;;96.40;59.90;;;;;;;-0.11;83.41;98212.96;125309;1098;65178;-78
2020/12/11 09:25:11;;;;;;;88.80;58.47;;;;;;;-0.05;83.35;98204.05;125141;1098;65223;-79
2020/12/11 09:27:40;;;;;;;97.13;58.53;;;;;;;0.07;83.43;98189.63;125115;1098;65312;-79
2020/12/11 09:30:17;;;;;;;97.10;63.95;;;;;;;0.20;83.74;98193.50;125208;1098;65134;-79
2020/12/11 09:32:57;;;;;;;99.33;63.07;;;;;;;0.24;82.83;98189.86;125137;1099;65191;-76
2020/12/11 09:35:26;;;;;;;99.37;61.08;;;;;;;0.28;82.76;98183.57;125162;1098;65188;-77
2020/12/11 09:37:57;;;;;;;90.32;58.05;;;;;;;0.33;83.37;98167.67;125188;1098;65152;-77
2020/12/11 09:45:43;;;;;;;103.87;66.57;;;;;;;0.58;82.77;98173.67;125187;1098;65331;-77
2020/12/11 09:48:49;;;;;;;98.70;61.37;;;;;;;0.62;82.16;98167.38;125170;1098;65232;-77
2020/12/11 09:56:23;;;;;;;94.90;61.37;;;;;;;0.69;82.04;98161.91;125173;1098;65230;-78
2020/12/11 09:58:53;;;;;;;99.63;59.63;;;;;;;0.65;82.52;98161.16;125218;1098;65191;-77
2020/12/11 10:01:32;;;;;;;87.90;55.30;;;;;;;0.62;81.82;98154.27;125183;1098;65217;-77
2020/12/11 10:03:58;;;;;;;92.83;58.27;;;;;;;0.56;82.12;98157.14;125182;1099;65325;-77
2020/12/11 10:06:26;;;;;;;85.10;56.37;;;;;;;0.48;82.31;98156.59;125163;1098;65108;-77
2020/12/11 10:08:54;;;;;;;92.33;58.78;;;;;;;0.40;82.28;98162.14;124842;1099;65156;-77
2020/12/11 10:11:21;;;;;;;103.90;59.77;;;;;;;0.38;82.29;98156.09;125145;1098;65164;-77
2020/12/11 10:13:51;;;;;;;97.07;58.83;;;;;;;0.33;82.39;98158.05;125234;1098;65176;-77
2020/12/11 10:16:18;;;;;;;97.13;59.27;;;;;;;0.34;82.57;98157.16;124797;1099;65146;-78
2020/12/11 10:18:45;;;;;;;97.43;59.77;;;;;;;0.36;82.62;98146.59;125202;1098;65225;-77
2020/12/11 10:21:12;;;;;;;105.15;64.45;;;;;;;0.36;82.04;98146.59;124816;1099;65573;-77
2020/12/11 10:23:38;;;;;;;97.83;58.03;;;;;;;0.31;82.34;98146.77;125167;1098;65153;-77
2020/12/11 10:26:05;;;;;;;90.67;56.63;;;;;;;0.26;81.95;98142.62;125228;1098;65323;-77
2020/12/11 10:28:32;;;;;;;90.63;58.07;;;;;;;0.27;82.10;98139.95;125257;1098;65152;-78
2020/12/11 10:30:59;;;;;;;95.63;61.70;;;;;;;0.30;82.27;98128.49;125148;1098;65226;-77
2020/12/11 10:33:25;;;;;;;106.53;63.53;;;;;;;0.37;82.24;98130.81;125238;1099;65192;-77
2020/12/11 10:35:51;;;;;;;111.20;65.78;;;;;;;0.52;82.68;98134.57;125150;1098;65797;-77
2020/12/11 10:38:19;;;;;;;103.65;63.15;;;;;;;0.66;82.49;98120.92;124809;1100;65182;-77
2020/12/11 10:40:45;;;;;;;104.53;63.13;;;;;;;0.84;82.35;98125.41;125192;1098;65194;-77
2020/12/11 10:43:12;;;;;;;113.70;66.43;;;;;;;0.93;82.33;98118.92;124810;1099;65236;-77
2020/12/11 10:45:38;;;;;;;102.77;63.53;;;;;;;1.07;81.89;98116.55;125202;1098;65188;-77
2020/12/11 10:48:05;;;;;;;108.45;61.77;;;;;;;1.12;81.46;98113.73;125181;1099;65287;-77
2020/12/11 10:50:32;;;;;;;89.77;58.53;;;;;;;1.08;81.61;98106.94;125179;1099;65208;-77
2020/12/11 10:52:58;;;;;;;99.70;61.37;;;;;;;1.01;81.52;98103.70;125172;1098;65137;-77
2020/12/11 10:55:26;;;;;;;99.10;62.83;;;;;;;0.97;81.45;98104.73;125298;1098;65307;-77
2020/12/11 10:57:53;;;;;;;99.33;61.63;;;;;;;0.99;81.80;98096.81;124828;1099;65233;-77
2020/12/11 11:00:20;;;;;;;103.33;61.07;;;;;;;1.02;81.65;98104.55;124791;1098;65211;-77
2020/12/11 11:02:46;;;;;;;102.65;61.45;;;;;;;0.98;81.71;98095.13;125250;1098;65214;-77
2020/12/11 11:05:13;;;;;;;100.43;59.83;;;;;;;1.06;81.63;98095.64;125172;1098;65169;-77
2020/12/11 11:07:41;;;;;;;100.53;59.20;;;;;;;1.14;81.34;98097.94;125245;1098;65123;-77
2020/12/11 11:12:43;;;;;;;;;;;;;;;1.10;81.54;98084.08;125252;1098;65127;-77
2020/12/11 11:23:07;;;;;;;81.00;51.40;;;;;;;1.03;81.45;98077.41;125188;1098;65227;-77
2020/12/11 11:28:06;;;;;;;93.27;55.70;;;;;;;1.05;81.35;98068.56;125131;1098;65199;-77
2020/12/11 11:30:33;;;;;;;90.23;55.07;;;;;;;1.03;81.05;98067.77;125161;1098;65124;-77
2020/12/11 11:33:00;;;;;;;88.90;54.93;;;;;;;0.97;81.06;98067.16;125284;1098;65133;-77
2020/12/11 11:35:30;;;;;;;87.80;56.57;;;;;;;1.05;81.49;98065.05;125165;1098;65092;-77
2020/12/11 11:37:58;;;;;;;89.93;57.03;;;;;;;1.06;81.20;98062.38;125257;1098;65223;-78
2020/12/11 11:40:25;;;;;;;92.93;57.67;;;;;;;1.12;81.60;98060.41;125168;1098;65151;-78